This is the latest recevied weather packets stored in our database for station/object KB2SKP. If no packets are shown the sender has not sent any weather packets the latest 1 day(s).
| Time | Temp. | Humidity | Pressure | Rain* | Wind** | Luminosity | Snow |
|---|---|---|---|---|---|---|---|
| 1777982436 | 17.78° C | 66% | 1009.9 hPa | 0 mm | 0.89 m/s, 124° | 29 W/m² | - |
| 1777982131 | 17.78° C | 67% | 1010 hPa | 0 mm | 0.45 m/s, 80° | 25 W/m² | - |
| 1777981829 | 17.22° C | 67% | 1009.8 hPa | 0 mm | 0.45 m/s, 98° | 22 W/m² | - |
| 1777981525 | 17.22° C | 67% | 1009.7 hPa | 0 mm | 0 m/s | 21 W/m² | - |
| 1777981222 | 17.22° C | 67% | 1009.6 hPa | 0 mm | 0 m/s | 20 W/m² | - |
| 1777980918 | 17.22° C | 69% | 1009.7 hPa | 0 mm | 0.89 m/s, 92° | 19 W/m² | - |
| 1777980614 | 17.22° C | 68% | 1009.6 hPa | 0 mm | 0.45 m/s, 180° | 18 W/m² | - |
| 1777980310 | 17.22° C | 68% | 1009.7 hPa | 0 mm | 0.45 m/s, 118° | 17 W/m² | - |
| 1777980009 | 16.67° C | 69% | 1009.5 hPa | 0 mm | 1.34 m/s, 142° | 17 W/m² | - |
| 1777979702 | 16.67° C | 69% | 1009.5 hPa | 0 mm | 0 m/s | 17 W/m² | - |
| 1777979399 | 16.67° C | 69% | 1009.7 hPa | 0 mm | 0 m/s | 16 W/m² | - |
| 1777979095 | 16.67° C | 70% | 1009.5 hPa | 0 mm | 0.45 m/s, 121° | 14 W/m² | - |
| 1777978792 | 16.67° C | 70% | 1009.4 hPa | 0 mm | 0.89 m/s, 138° | 13 W/m² | - |
| 1777978489 | 16.67° C | 70% | 1009.6 hPa | 0 mm | 0.45 m/s, 151° | 12 W/m² | - |
| 1777978185 | 16.67° C | 69% | 1009.5 hPa | 0 mm | 0.89 m/s, 145° | 11 W/m² | - |
| 1777977882 | 16.67° C | 69% | 1009.5 hPa | 0 mm | 0.45 m/s, 124° | 10 W/m² | - |
| 1777977579 | 16.67° C | 69% | 1009.4 hPa | 0 mm | 0.89 m/s, 107° | 8 W/m² | - |
| 1777977276 | 16.67° C | 69% | 1009.2 hPa | 0 mm | 1.34 m/s, 109° | 7 W/m² | - |
| 1777976973 | 16.67° C | 70% | 1009.3 hPa | 0 mm | 0.89 m/s, 136° | 6 W/m² | - |
| 1777976670 | 16.67° C | 70% | 1009.4 hPa | 0 mm | 0.89 m/s, 75° | 5 W/m² | - |
| 1777976367 | 16.67° C | 70% | 1009.5 hPa | 0 mm | 0.45 m/s, 118° | 3 W/m² | - |
| 1777976061 | 16.11° C | 70% | 1009.4 hPa | 0 mm | 1.34 m/s, 136° | 2 W/m² | - |
| 1777975757 | 16.67° C | 70% | 1009.3 hPa | 0 mm | 0.45 m/s, 152° | 2 W/m² | - |
| 1777975454 | 16.67° C | 70% | 1009.1 hPa | 0 mm | 1.34 m/s, 125° | 1 W/m² | - |
| 1777975150 | 16.67° C | 70% | 1009.2 hPa | 0 mm | 0.89 m/s, 154° | 0 W/m² | - |
* Rain latest hour (hover to see other rain measurements)
** Current wind speed in m/s (hover to see current wind gust speed)